createdAt,value
2019-05-12T00:02:19.719Z,73.20
2019-05-12T00:04:49.513Z,73.40
2019-05-12T00:07:19.187Z,69.50
2019-05-12T00:09:48.819Z,67.80
2019-05-12T00:12:18.568Z,66.50
2019-05-12T00:14:48.618Z,67.30
2019-05-12T00:17:18.896Z,64.10
2019-05-12T00:19:48.627Z,68.90
2019-05-12T00:22:19.851Z,66.60
2019-05-12T00:24:49.452Z,63.20
2019-05-12T00:27:20.727Z,66.20
2019-05-12T00:29:50.355Z,64.20
2019-05-12T00:32:20.004Z,66.20
2019-05-12T00:34:49.621Z,66.40
2019-05-12T00:37:19.222Z,66.20
2019-05-12T00:39:48.883Z,67.60
2019-05-12T00:42:18.501Z,65.60
2019-05-12T00:44:48.231Z,66.70
2019-05-12T00:47:18.782Z,66.30
2019-05-12T00:49:50.291Z,68.60
2019-05-12T00:52:20.045Z,66.30
2019-05-12T00:54:49.727Z,65.50
2019-05-12T00:57:19.405Z,63.00
2019-05-12T00:59:49.109Z,65.10
2019-05-12T01:02:18.707Z,66.00
2019-05-12T01:04:48.807Z,69.00
2019-05-12T01:07:18.607Z,67.60
2019-05-12T01:09:49.135Z,62.90
2019-05-12T01:12:18.848Z,63.00
2019-05-12T01:14:48.606Z,64.10
2019-05-12T01:17:18.218Z,62.80
2019-05-12T01:19:48.579Z,62.20
2019-05-12T01:22:18.749Z,62.70
2019-05-12T01:24:48.544Z,60.80
2019-05-12T01:27:18.230Z,62.80
2019-05-12T01:29:48.103Z,63.00
2019-05-12T01:32:31.639Z,60.00
2019-05-12T01:35:01.300Z,60.60
2019-05-12T01:37:31.048Z,62.30
2019-05-12T01:40:00.705Z,64.40
2019-05-12T01:42:30.300Z,64.20
2019-05-12T01:44:59.954Z,64.80
2019-05-12T01:47:29.567Z,67.10
2019-05-12T01:49:59.255Z,66.30
2019-05-12T01:52:28.949Z,64.40
2019-05-12T01:54:59.082Z,62.10
2019-05-12T01:57:28.979Z,63.90
2019-05-12T01:59:58.727Z,66.70
2019-05-12T02:02:28.691Z,67.80
2019-05-12T02:05:08.494Z,68.00
2019-05-12T02:08:02.805Z,64.20
2019-05-12T02:10:32.488Z,65.60
2019-05-12T02:13:02.192Z,63.60
2019-05-12T02:15:31.856Z,62.80
2019-05-12T02:18:01.437Z,63.80
2019-05-12T02:20:31.067Z,63.70
2019-05-12T02:23:00.676Z,64.00
2019-05-12T02:25:30.356Z,68.40
2019-05-12T02:27:59.967Z,70.30
2019-05-12T02:30:30.758Z,69.10
2019-05-12T02:33:00.612Z,67.10
2019-05-12T02:35:30.256Z,64.30
2019-05-12T02:37:59.873Z,65.60
2019-05-12T02:40:29.520Z,64.60
2019-05-12T02:42:59.513Z,64.00
2019-05-12T02:45:29.192Z,64.90
2019-05-12T02:47:58.817Z,67.00
2019-05-12T02:50:35.256Z,67.30
2019-05-12T02:53:05.624Z,67.00
2019-05-12T02:55:35.891Z,65.20
2019-05-12T02:58:06.591Z,67.00
2019-05-12T03:00:37.241Z,67.40
2019-05-12T03:03:09.379Z,67.70
2019-05-12T03:05:43.645Z,68.60
2019-05-12T03:08:15.340Z,66.10
2019-05-12T03:10:48.440Z,65.00
2019-05-12T03:13:18.077Z,65.90
2019-05-12T03:15:47.724Z,65.00
2019-05-12T03:18:17.364Z,65.70
2019-05-12T03:20:46.995Z,66.60
2019-05-12T03:23:19.128Z,66.60
2019-05-12T03:25:47.953Z,63.80
2019-05-12T03:28:17.554Z,64.90
2019-05-12T03:30:48.903Z,65.40
2019-05-12T03:33:20.015Z,65.50
2019-05-12T03:35:52.845Z,68.10
2019-05-12T03:38:20.999Z,65.80
2019-05-12T03:40:50.641Z,66.90
2019-05-12T03:43:20.348Z,67.60
2019-05-12T03:45:49.981Z,67.40
2019-05-12T03:48:19.602Z,68.60
2019-05-12T03:50:49.243Z,73.70
2019-05-12T03:53:18.905Z,77.40
2019-05-12T03:55:48.548Z,83.60
2019-05-12T03:58:18.245Z,83.40
2019-05-12T04:00:47.945Z,85.10
2019-05-12T04:03:17.533Z,84.40
2019-05-12T04:05:47.207Z,90.50
2019-05-12T04:08:16.887Z,94.50
2019-05-12T04:10:46.602Z,91.80
2019-05-12T04:13:16.302Z,94.90
2019-05-12T04:15:46.149Z,98.00
2019-05-12T04:18:16.559Z,99.70
2019-05-12T04:23:15.817Z,99.90
2019-05-12T04:25:52.072Z,99.90
2019-05-12T04:28:17.198Z,99.90
2019-05-12T04:30:46.954Z,99.90
2019-05-12T04:33:16.573Z,99.90
2019-05-12T04:35:46.239Z,99.90
2019-05-12T04:38:15.836Z,99.90
2019-05-12T04:40:45.695Z,99.90
2019-05-12T04:43:15.444Z,99.90
2019-05-12T05:05:44.630Z,99.90
2019-05-12T05:08:19.287Z,99.90
2019-05-12T05:20:43.933Z,99.90
2019-05-12T13:08:07.684Z,99.10
2019-05-12T13:10:40.667Z,99.90
2019-05-12T13:13:08.619Z,99.90
2019-05-12T13:15:38.216Z,99.90
2019-05-12T13:23:42.573Z,99.90
2019-05-12T13:26:13.784Z,99.90
2019-05-12T13:28:50.576Z,99.90
2019-05-12T13:31:16.194Z,99.90
2019-05-12T13:33:49.458Z,99.90
2019-05-12T13:36:24.173Z,99.90
2019-05-12T13:38:53.583Z,97.40
2019-05-12T13:41:23.220Z,97.70
2019-05-12T13:43:55.889Z,93.20
2019-05-12T13:46:24.121Z,93.80
2019-05-12T13:48:57.736Z,93.30
2019-05-12T13:51:25.071Z,92.30
2019-05-12T13:53:54.726Z,90.30
2019-05-12T13:56:29.750Z,92.60
2019-05-12T13:58:55.660Z,87.70
2019-05-12T14:01:25.275Z,89.70
2019-05-12T14:03:54.940Z,87.10
2019-05-12T14:06:31.833Z,91.00
2019-05-12T14:08:55.882Z,81.80
2019-05-12T14:11:25.492Z,75.20
2019-05-12T14:13:55.167Z,79.30
2019-05-12T14:16:24.795Z,77.60
2019-05-12T14:18:57.010Z,73.70
2019-05-12T14:21:25.684Z,78.00
2019-05-12T14:23:56.714Z,70.00
2019-05-12T14:26:26.367Z,69.50
2019-05-12T14:28:56.026Z,72.20
2019-05-12T14:31:30.258Z,72.20
2019-05-12T14:33:57.076Z,69.80
2019-05-12T14:36:26.995Z,73.40
2019-05-12T14:39:00.261Z,74.00
2019-05-12T14:41:28.052Z,66.00
2019-05-12T14:44:01.530Z,59.90
2019-05-12T14:46:28.972Z,55.80
2019-05-12T14:48:58.679Z,58.30
2019-05-12T14:51:28.266Z,59.50
2019-05-12T14:53:58.045Z,58.20
2019-05-12T14:56:27.694Z,60.70
2019-05-12T14:59:00.758Z,64.60
2019-05-12T15:01:44.128Z,64.30
2019-05-12T15:04:05.060Z,63.70
2019-05-12T15:06:34.307Z,64.90
2019-05-12T15:09:05.907Z,65.00
2019-05-12T15:11:36.896Z,60.70
2019-05-12T15:14:06.584Z,58.80
2019-05-12T15:16:40.291Z,66.10
2019-05-12T15:19:09.810Z,68.90
2019-05-12T15:21:39.704Z,70.30
2019-05-12T15:24:15.247Z,69.10
2019-05-12T15:26:43.617Z,67.70
2019-05-12T15:29:19.894Z,65.80
2019-05-12T15:31:53.396Z,64.20
2019-05-12T15:34:16.111Z,66.50
2019-05-12T15:36:52.303Z,63.80
2019-05-12T15:39:17.308Z,58.20
2019-05-12T15:41:51.138Z,50.80
2019-05-12T15:44:23.203Z,51.60
2019-05-12T15:46:49.968Z,51.40
2019-05-12T15:49:20.887Z,49.90
2019-05-12T15:51:55.273Z,49.90
2019-05-12T15:54:22.384Z,50.40
2019-05-12T15:56:53.271Z,51.70
2019-05-12T15:59:24.528Z,49.20
2019-05-12T16:02:09.569Z,51.30
2019-05-12T16:04:34.750Z,48.00
2019-05-12T16:07:39.442Z,48.60
2019-05-12T16:09:57.778Z,47.10
2019-05-12T16:12:27.887Z,49.80
2019-05-12T16:14:57.735Z,48.30
2019-05-12T16:17:27.683Z,50.00
2019-05-12T16:19:59.374Z,50.00
2019-05-12T16:22:30.648Z,48.90
2019-05-12T16:25:05.723Z,48.90
2019-05-12T16:27:37.241Z,49.50
2019-05-12T16:30:08.005Z,49.30
2019-05-12T16:32:43.066Z,52.30
2019-05-12T16:35:09.112Z,49.60
2019-05-12T16:37:39.829Z,50.50
2019-05-12T16:40:09.873Z,51.30
2019-05-12T16:42:48.345Z,49.30
2019-05-12T16:45:25.872Z,49.50
2019-05-12T16:47:59.207Z,49.80
2019-05-12T16:50:29.674Z,45.70
2019-05-12T16:53:00.057Z,47.20
2019-05-12T16:55:29.829Z,48.70
2019-05-12T16:58:00.951Z,53.20
2019-05-12T17:00:31.226Z,48.70
2019-05-12T17:03:03.798Z,46.70
2019-05-12T17:05:33.726Z,48.60
2019-05-12T17:08:04.316Z,49.70
2019-05-12T17:10:49.711Z,48.20
2019-05-12T17:13:16.100Z,49.90
2019-05-12T17:16:14.371Z,52.00
2019-05-12T17:18:44.397Z,49.40
2019-05-12T17:21:14.520Z,49.10
2019-05-12T17:23:46.585Z,49.40
2019-05-12T17:26:16.289Z,51.00
2019-05-12T17:28:47.317Z,51.20
2019-05-12T17:31:16.985Z,52.20
2019-05-12T17:33:48.168Z,51.90
2019-05-12T17:36:18.193Z,53.10
2019-05-12T17:38:51.142Z,57.30
2019-05-12T17:41:19.284Z,57.00
2019-05-12T17:43:56.651Z,56.40
2019-05-12T17:46:20.544Z,59.50
2019-05-12T17:48:50.492Z,57.60
2019-05-12T17:51:20.488Z,56.60
2019-05-12T17:53:53.866Z,56.10
2019-05-12T17:56:25.093Z,54.80
2019-05-12T17:58:54.513Z,55.50
2019-05-12T18:01:31.325Z,55.80
2019-05-12T18:03:55.611Z,58.90
2019-05-12T18:06:29.140Z,58.70
2019-05-12T18:08:56.871Z,58.30
2019-05-12T18:11:26.521Z,61.10
2019-05-12T18:14:02.768Z,60.60
2019-05-12T18:16:27.476Z,60.40
2019-05-12T18:18:57.188Z,58.60
2019-05-12T18:21:30.969Z,59.90
2019-05-12T18:24:06.767Z,58.10
2019-05-12T18:26:33.958Z,61.80
2019-05-12T18:29:04.306Z,62.00
2019-05-12T18:31:34.406Z,60.70
2019-05-12T18:34:05.003Z,61.10
2019-05-12T18:36:34.839Z,59.50
2019-05-12T18:39:27.881Z,60.70
2019-05-12T18:42:24.415Z,61.10
2019-05-12T18:44:54.577Z,63.20
2019-05-12T18:47:32.063Z,64.90
2019-05-12T18:50:00.454Z,63.50
2019-05-12T18:52:45.606Z,60.50
2019-05-12T18:55:16.816Z,57.00
2019-05-12T18:57:49.884Z,55.30
2019-05-12T19:00:20.378Z,53.70
2019-05-12T19:02:51.155Z,54.10
2019-05-12T19:05:24.098Z,51.60
2019-05-12T19:07:54.254Z,56.60
2019-05-12T19:10:24.250Z,56.70
2019-05-12T19:13:01.311Z,55.90
2019-05-12T19:15:28.868Z,58.30
2019-05-12T19:18:03.563Z,59.80
2019-05-12T19:20:36.178Z,59.20
2019-05-12T19:23:06.574Z,57.10
2019-05-12T19:25:40.374Z,62.70
2019-05-12T19:28:10.524Z,61.30
2019-05-12T19:30:38.846Z,58.80
2019-05-12T19:33:10.717Z,56.30
2019-05-12T19:35:39.984Z,57.90
2019-05-12T19:38:10.349Z,61.50
2019-05-12T19:40:40.085Z,62.50
2019-05-12T19:43:09.791Z,60.80
2019-05-12T19:45:39.502Z,60.90
2019-05-12T19:48:23.313Z,60.50
2019-05-12T19:50:44.397Z,62.40
2019-05-12T19:53:13.922Z,63.60
2019-05-12T19:55:44.332Z,66.20
2019-05-12T19:58:14.364Z,63.70
2019-05-12T20:00:47.152Z,60.60
2019-05-12T20:03:16.883Z,58.80
2019-05-12T20:05:46.681Z,58.40
2019-05-12T20:08:16.419Z,58.10
2019-05-12T20:10:49.418Z,58.90
2019-05-12T20:13:17.428Z,55.10
2019-05-12T20:15:47.167Z,57.00
2019-05-12T20:18:16.916Z,59.80
2019-05-12T20:20:46.573Z,64.00
2019-05-12T20:23:16.280Z,63.10
2019-05-12T20:25:48.856Z,64.40
2019-05-12T20:28:18.618Z,60.50
2019-05-12T20:30:52.315Z,60.60
2019-05-12T20:33:24.631Z,64.30
2019-05-12T20:35:54.812Z,65.80
2019-05-12T20:38:33.786Z,67.30
2019-05-12T20:40:55.927Z,62.40
2019-05-12T20:43:32.219Z,64.90
2019-05-12T20:45:57.089Z,65.10
2019-05-12T20:48:31.073Z,61.40
2019-05-12T20:50:58.064Z,59.70
2019-05-12T20:53:31.913Z,61.70
2019-05-12T20:56:03.715Z,62.50
2019-05-12T20:58:37.577Z,64.60
2019-05-12T21:01:05.343Z,63.80
2019-05-12T21:03:39.748Z,61.20
2019-05-12T21:06:06.853Z,62.10
2019-05-12T21:08:38.051Z,65.60
2019-05-12T21:11:07.759Z,63.90
2019-05-12T21:13:37.418Z,58.80
2019-05-12T21:16:16.274Z,57.50
2019-05-12T21:18:47.806Z,56.50
2019-05-12T21:21:14.279Z,59.00
2019-05-12T21:23:47.928Z,62.80
2019-05-12T21:26:14.033Z,60.00
2019-05-12T21:28:48.052Z,59.60
2019-05-12T21:31:14.955Z,63.10
2019-05-12T21:33:44.637Z,64.20
2019-05-12T21:36:23.609Z,64.90
2019-05-12T21:38:45.616Z,61.50
2019-05-12T21:41:15.693Z,62.60
2019-05-12T21:43:45.467Z,62.30
2019-05-12T21:46:15.639Z,59.10
2019-05-12T21:48:45.936Z,62.30
2019-05-12T21:51:20.031Z,61.10
2019-05-12T21:53:50.645Z,62.30
2019-05-12T21:56:18.452Z,59.90
2019-05-12T21:58:53.733Z,61.80
2019-05-12T22:01:19.631Z,61.20
2019-05-12T22:03:58.092Z,61.20
2019-05-12T22:06:24.854Z,60.50
2019-05-12T22:09:01.111Z,62.20
2019-05-12T22:11:28.007Z,61.20
2019-05-12T22:14:00.208Z,63.00
2019-05-12T22:16:39.689Z,62.40
2019-05-12T22:19:03.761Z,60.60
2019-05-12T22:21:35.871Z,57.20
2019-05-12T22:24:06.298Z,61.80
2019-05-12T22:26:39.574Z,63.20
2019-05-12T22:29:07.369Z,65.10
2019-05-12T22:31:38.680Z,62.80
2019-05-12T22:34:09.447Z,62.30
2019-05-12T22:36:39.078Z,62.00
2019-05-12T22:39:08.767Z,61.60
2019-05-12T22:41:41.343Z,62.10
2019-05-12T22:44:09.849Z,63.50
2019-05-12T22:46:39.491Z,65.30
2019-05-12T22:49:10.558Z,64.00
2019-05-12T22:51:40.498Z,62.70
2019-05-12T22:54:10.716Z,64.80
2019-05-12T22:56:40.554Z,62.70
2019-05-12T22:59:10.139Z,62.40
2019-05-12T23:01:41.621Z,61.40
2019-05-12T23:04:11.088Z,61.00
2019-05-12T23:06:43.658Z,60.80
2019-05-12T23:09:12.078Z,62.60
2019-05-12T23:11:41.763Z,64.80
2019-05-12T23:14:12.649Z,65.00
2019-05-12T23:16:44.267Z,66.50
2019-05-12T23:19:15.074Z,65.70
2019-05-12T23:21:49.200Z,65.30
2019-05-12T23:24:16.239Z,66.50
2019-05-12T23:26:47.987Z,68.60
2019-05-12T23:29:20.451Z,69.20
2019-05-12T23:31:48.498Z,69.20
2019-05-12T23:34:18.095Z,69.30
2019-05-12T23:36:50.354Z,69.10
2019-05-12T23:39:19.016Z,71.60
2019-05-12T23:41:48.696Z,74.20
2019-05-12T23:44:18.386Z,71.60
2019-05-12T23:46:48.056Z,66.00
2019-05-12T23:49:36.816Z,64.60
2019-05-12T23:52:06.595Z,65.90
2019-05-12T23:54:36.443Z,69.40
2019-05-12T23:57:06.067Z,67.80
2019-05-12T23:59:35.754Z,66.00
